Portada
METAR-TAF:

METAR-TAF

Aeroports :

Brighton, Anglaterra

latitud: 50-50N, longitud: 000-17W, altitud: 2 m

Observació

L'informe es va fer fa 12 hores i 57 minuts, a les 19:50 UTC
Vent 10 kt del Oest
Temperatura 5°C
Humitat 75%
Pressió 1019 hPa
Visibilitat 10 km o més
sense núvols per sota de 1500 mi sense presència de cumulonimbus.

METAR: EGKA 201950Z 26010KT CAVOK 05/01 Q1019

Hora: 08:47 (08:47 UTC)

Pronòstic

L'informe es va fer fa 15 hores i 43 minuts, a les 17:04 UTC
Pronòstic vàlid del 20 a les 18 UTC al 20 a les 20 UTC
Vent 12 kt del Oest
Visibilitat 10 km o més
Escasses núvols a una alçada de 3500 ft
Probabilitat 30% :
Temporalment
l' 20 a les 18 UTC al 20 a les 19 UTC
Vent 15 kt del Oest amb ràfegues de 25 kt
xàfecs de pluja

TAF: EGKA 201704Z 2018/2020 27012KT 9999 FEW035 PROB30 TEMPO 2018/2019 27015G25KT SHRA

Observacions i pronòstics meteorològics de més de 4000 aeroports (METAR i TAF).

Les estacions disponibles són els punts grocs i vermells al mapa.

Posi el ratolí al punt desitjat per veure el nom de l'estació.

Feu clic per veure les observacions i els pronòstics meteorològics.

Per canviar el mapa: feu clic els botons verds amb una creu de color negre per apropar; al botó verd amb un guió per allunyar la imatge; o en les fletxes verdes per a mapes adjacents.


METAR-TAF: